Time,TemperatureF,DewpointF,PressureIn,WindDirection,WindDirectionDegrees,WindSpeedMPH,WindSpeedGustMPH,Humidity,HourlyPrecipIn,Conditions,Clouds,dailyrainin,SoftwareType,DateUTC
2013-01-25 00:01:00,11.5,3.9,30.00,South,181,3.0,11.0,71,0.00,,OVC032,0.00,VWS V14.00,2013-01-25 06:01:00,
2013-01-25 00:07:00,11.5,3.9,30.00,SSW,194,5.0,11.0,71,0.00,,OVC032,0.00,VWS V14.00,2013-01-25 06:07:00,
2013-01-25 00:12:00,11.6,3.7,30.00,South,181,4.0,10.0,70,0.00,,OVC032,0.00,VWS V14.00,2013-01-25 06:12:00,
2013-01-25 00:17:00,11.8,3.9,29.99,South,174,5.0,12.0,70,0.00,,OVC032,0.00,VWS V14.00,2013-01-25 06:17:00,
2013-01-25 00:22:00,11.9,4.0,29.99,SSW,212,5.0,13.0,70,0.00,,OVC032,0.00,VWS V14.00,2013-01-25 06:22:00,
2013-01-25 00:27:00,12.0,3.8,29.99,SSW,193,6.0,13.0,69,0.00,,OVC032,0.00,VWS V14.00,2013-01-25 06:27:00,
2013-01-25 00:32:00,12.1,3.9,29.99,South,179,0.0,9.0,69,0.00,,OVC032,0.00,VWS V14.00,2013-01-25 06:32:00,
2013-01-25 00:37:00,12.1,3.6,29.98,South,182,5.0,11.0,68,0.00,,OVC032,0.00,VWS V14.00,2013-01-25 06:37:00,
2013-01-25 00:42:00,12.2,3.7,29.98,South,187,3.0,10.0,68,0.00,,OVC032,0.00,VWS V14.00,2013-01-25 06:42:00,
2013-01-25 00:47:00,12.2,3.7,29.98,SSW,196,10.0,10.0,68,0.00,,OVC032,0.00,VWS V14.00,2013-01-25 06:47:00,
2013-01-25 00:52:00,12.1,3.6,29.98,South,190,7.0,8.0,68,0.00,,OVC032,0.00,VWS V14.00,2013-01-25 06:52:00,
2013-01-25 00:57:00,12.1,3.9,29.98,SSW,193,5.0,9.0,69,0.00,,OVC032,0.00,VWS V14.00,2013-01-25 06:57:00,
2013-01-25 01:02:00,12.1,3.9,29.98,South,189,0.0,8.0,69,0.00,,OVC019,0.00,VWS V14.00,2013-01-25 07:02:00,
2013-01-25 01:07:00,12.2,4.0,29.97,SSW,194,3.0,12.0,69,0.00,,OVC019,0.00,VWS V14.00,2013-01-25 07:07:00,
2013-01-25 01:12:00,12.3,4.1,29.97,SSW,202,0.0,8.0,69,0.00,,OVC019,0.00,VWS V14.00,2013-01-25 07:12:00,
2013-01-25 01:17:00,12.3,4.1,29.97,South,175,1.0,9.0,69,0.00,,OVC019,0.00,VWS V14.00,2013-01-25 07:17:00,
2013-01-25 01:22:00,12.2,4.0,29.96,SSW,194,7.0,9.0,69,0.00,,OVC019,0.00,VWS V14.00,2013-01-25 07:22:00,
2013-01-25 01:27:00,12.2,4.0,29.97,SSW,199,0.0,9.0,69,0.00,,OVC019,0.00,VWS V14.00,2013-01-25 07:27:00,
2013-01-25 01:32:00,12.2,4.0,29.96,South,183,5.0,7.0,69,0.00,,OVC019,0.00,VWS V14.00,2013-01-25 07:32:00,
2013-01-25 01:37:00,12.2,4.0,29.97,SSW,212,0.0,10.0,69,0.00,,OVC019,0.00,VWS V14.00,2013-01-25 07:37:00,
2013-01-25 01:42:00,12.2,4.0,29.96,SW,226,0.0,0.0,69,0.00,,OVC030,0.00,VWS V14.00,2013-01-25 07:42:00,
2013-01-25 01:47:00,12.3,4.4,29.95,SSW,196,0.0,8.0,70,0.00,,OVC030,0.00,VWS V14.00,2013-01-25 07:47:00,
2013-01-25 01:52:00,12.3,4.4,29.95,SW,220,0.0,0.0,70,0.00,,OVC030,0.00,VWS V14.00,2013-01-25 07:52:00,
2013-01-25 01:57:00,12.2,4.6,29.95,SSW,200,5.0,8.0,71,0.00,,OVC030,0.00,VWS V14.00,2013-01-25 07:57:00,
2013-01-25 02:02:00,12.2,4.6,29.94,SSW,208,7.0,7.0,71,0.00,,BKN030,0.00,VWS V14.00,2013-01-25 08:02:00,
2013-01-25 02:07:00,12.0,4.4,29.95,SSW,206,4.0,8.0,71,0.00,,BKN030,0.00,VWS V14.00,2013-01-25 08:07:00,
2013-01-25 02:12:00,12.0,4.4,29.94,South,178,0.0,8.0,71,0.00,,BKN030,0.00,VWS V14.00,2013-01-25 08:12:00,
2013-01-25 02:17:00,11.9,4.3,29.94,SW,231,0.0,9.0,71,0.00,,BKN030,0.00,VWS V14.00,2013-01-25 08:17:00,
2013-01-25 02:22:00,11.8,4.5,29.94,SW,218,0.0,7.0,72,0.00,,BKN030,0.00,VWS V14.00,2013-01-25 08:22:00,
2013-01-25 02:27:00,11.8,4.5,29.93,SW,217,0.0,7.0,72,0.00,,BKN030,0.00,VWS V14.00,2013-01-25 08:27:00,
2013-01-25 02:32:00,11.8,4.5,29.94,SW,218,0.0,0.0,72,0.00,,BKN030,0.00,VWS V14.00,2013-01-25 08:32:00,
2013-01-25 02:37:00,11.8,4.8,29.93,SW,220,0.0,0.0,73,0.00,,BKN030,0.00,VWS V14.00,2013-01-25 08:37:00,
2013-01-25 02:42:00,11.8,4.8,29.94,SW,223,0.0,0.0,73,0.00,,BKN030,0.00,VWS V14.00,2013-01-25 08:42:00,
2013-01-25 02:47:00,11.8,4.8,29.94,SW,223,0.0,0.0,73,0.00,,BKN030,0.00,VWS V14.00,2013-01-25 08:47:00,
2013-01-25 02:52:00,12.0,5.3,29.94,WSW,240,0.0,0.0,74,0.00,,BKN021,0.00,VWS V14.00,2013-01-25 08:52:00,
2013-01-25 02:57:00,12.4,6.0,29.94,WSW,258,4.0,7.0,75,0.00,,BKN021,0.00,VWS V14.00,2013-01-25 08:57:00,
2013-01-25 03:02:00,12.8,6.4,29.94,WSW,248,0.0,10.0,75,0.00,,SCT021,0.00,VWS V14.00,2013-01-25 09:02:00,
2013-01-25 03:07:00,13.4,7.0,29.94,WNW,282,11.0,18.0,75,0.00,,SCT021,0.00,VWS V14.00,2013-01-25 09:07:00,
2013-01-25 03:12:00,13.8,6.8,29.95,West,274,16.0,24.0,73,0.00,,SCT021,0.00,VWS V14.00,2013-01-25 09:12:00,
2013-01-25 03:17:00,13.9,5.9,29.95,WNW,288,14.0,29.0,70,0.00,,SCT021,0.00,VWS V14.00,2013-01-25 09:17:00,
2013-01-25 03:22:00,13.7,5.1,29.95,West,279,18.0,27.0,68,0.00,,SCT021,0.00,VWS V14.00,2013-01-25 09:22:00,
2013-01-25 03:27:00,13.3,4.4,29.95,NW,304,12.0,27.0,67,0.00,,SCT021,0.00,VWS V14.00,2013-01-25 09:27:00,
2013-01-25 03:32:00,13.0,3.8,29.95,WNW,283,21.0,24.0,66,0.00,,SCT021,0.00,VWS V14.00,2013-01-25 09:32:00,
2013-01-25 03:37:00,12.7,3.5,29.95,WNW,282,8.0,24.0,66,0.00,,SCT021,0.00,VWS V14.00,2013-01-25 09:37:00,
2013-01-25 03:42:00,12.5,3.3,29.95,NW,308,7.0,22.0,66,0.00,,BKN020,0.00,VWS V14.00,2013-01-25 09:42:00,
2013-01-25 03:47:00,12.4,3.5,29.96,West,281,22.0,23.0,67,0.00,,BKN020,0.00,VWS V14.00,2013-01-25 09:47:00,
2013-01-25 03:52:00,12.3,3.1,29.96,WNW,292,11.0,21.0,66,0.00,,BKN020,0.00,VWS V14.00,2013-01-25 09:52:00,
2013-01-25 03:58:00,12.3,3.1,29.96,NW,306,15.0,21.0,66,0.00,,BKN020,0.00,VWS V14.00,2013-01-25 09:58:00,
2013-01-25 04:03:00,12.1,2.9,29.96,West,277,6.0,21.0,66,0.00,,OVC027,0.00,VWS V14.00,2013-01-25 10:03:00,
2013-01-25 04:08:00,11.8,2.7,29.95,WNW,291,14.0,21.0,66,0.00,,OVC027,0.00,VWS V14.00,2013-01-25 10:08:00,
2013-01-25 04:13:00,11.5,2.4,29.96,WNW,287,6.0,12.0,66,0.00,,OVC027,0.00,VWS V14.00,2013-01-25 10:13:00,
2013-01-25 04:18:00,11.3,2.2,29.96,WNW,285,15.0,19.0,66,0.00,,OVC027,0.00,VWS V14.00,2013-01-25 10:18:00,
2013-01-25 04:23:00,10.9,1.5,29.96,West,279,8.0,17.0,65,0.00,,OVC027,0.00,VWS V14.00,2013-01-25 10:23:00,
2013-01-25 04:28:00,10.5,1.1,29.96,NW,312,9.0,24.0,65,0.00,,OVC027,0.00,VWS V14.00,2013-01-25 10:28:00,
2013-01-25 04:33:00,10.2,0.8,29.96,WNW,285,6.0,26.0,65,0.00,,OVC027,0.00,VWS V14.00,2013-01-25 10:33:00,
2013-01-25 04:38:00,9.7,0.3,29.96,WNW,284,12.0,26.0,65,0.00,,,0.00,VWS V14.00,2013-01-25 10:38:00,
2013-01-25 04:43:00,9.3,-0.4,29.97,NW,305,8.0,18.0,64,0.00,,,0.00,VWS V14.00,2013-01-25 10:43:00,
2013-01-25 04:48:00,8.8,-0.6,29.97,NW,310,7.0,23.0,65,0.00,,,0.00,VWS V14.00,2013-01-25 10:48:00,
2013-01-25 04:53:00,8.5,-0.8,29.97,WNW,290,17.0,21.0,65,0.00,,,0.00,VWS V14.00,2013-01-25 10:53:00,
2013-01-25 04:58:00,8.1,-1.2,29.97,WNW,285,18.0,25.0,65,0.00,,,0.00,VWS V14.00,2013-01-25 10:58:00,
2013-01-25 05:03:00,7.8,-1.5,29.97,WNW,283,18.0,22.0,65,0.00,,FEW036,0.00,VWS V14.00,2013-01-25 11:03:00,
2013-01-25 05:08:00,7.4,-1.9,29.97,WNW,285,17.0,22.0,65,0.00,,FEW036,0.00,VWS V14.00,2013-01-25 11:08:00,
2013-01-25 05:13:00,7.3,-2.0,29.97,WNW,288,6.0,19.0,65,0.00,,FEW036,0.00,VWS V14.00,2013-01-25 11:13:00,
2013-01-25 05:18:00,7.1,-2.2,29.98,West,277,12.0,22.0,65,0.00,,FEW036,0.00,VWS V14.00,2013-01-25 11:18:00,
2013-01-25 05:23:00,7.0,-2.3,29.98,WNW,287,5.0,15.0,65,0.00,,FEW036,0.00,VWS V14.00,2013-01-25 11:23:00,
2013-01-25 05:28:00,6.8,-2.1,29.98,West,281,7.0,23.0,66,0.00,,FEW036,0.00,VWS V14.00,2013-01-25 11:28:00,
2013-01-25 05:33:00,6.7,-2.5,29.99,WNW,284,12.0,22.0,65,0.00,,FEW036,0.00,VWS V14.00,2013-01-25 11:33:00,
2013-01-25 05:38:00,6.5,-2.4,29.98,WNW,286,13.0,22.0,66,0.00,,FEW036,0.00,VWS V14.00,2013-01-25 11:38:00,
2013-01-25 05:43:00,6.4,-2.8,29.99,WNW,296,8.0,20.0,65,0.00,,BKN017,0.00,VWS V14.00,2013-01-25 11:43:00,
2013-01-25 05:48:00,6.3,-2.6,29.99,WNW,293,5.0,20.0,66,0.00,,BKN017,0.00,VWS V14.00,2013-01-25 11:48:00,
2013-01-25 05:53:00,6.2,-2.7,30.00,WNW,293,11.0,16.0,66,0.00,,BKN017,0.00,VWS V14.00,2013-01-25 11:53:00,
2013-01-25 05:58:00,6.0,-2.9,29.99,WNW,285,12.0,21.0,66,0.00,,BKN017,0.00,VWS V14.00,2013-01-25 11:58:00,
2013-01-25 06:03:00,5.8,-3.1,30.00,WNW,296,8.0,14.0,66,0.00,,OVC017,0.00,VWS V14.00,2013-01-25 12:03:00,
2013-01-25 06:08:00,5.7,-3.2,30.00,West,276,11.0,18.0,66,0.00,,OVC017,0.00,VWS V14.00,2013-01-25 12:08:00,
2013-01-25 06:13:00,5.5,-3.4,30.01,West,280,7.0,15.0,66,0.00,,OVC017,0.00,VWS V14.00,2013-01-25 12:13:00,
2013-01-25 06:18:00,5.3,-3.6,30.01,WNW,294,5.0,17.0,66,0.00,,OVC017,0.00,VWS V14.00,2013-01-25 12:18:00,
2013-01-25 06:23:00,5.2,-3.7,30.01,NW,312,7.0,18.0,66,0.00,,OVC017,0.00,VWS V14.00,2013-01-25 12:23:00,
2013-01-25 06:28:00,5.0,-3.9,30.01,WNW,296,8.0,23.0,66,0.00,,OVC017,0.00,VWS V14.00,2013-01-25 12:28:00,
2013-01-25 06:33:00,5.0,-3.9,30.02,NW,306,14.0,16.0,66,0.00,,OVC017,0.00,VWS V14.00,2013-01-25 12:33:00,
2013-01-25 06:38:00,4.9,-4.0,30.02,NW,312,5.0,16.0,66,0.00,,OVC017,0.00,VWS V14.00,2013-01-25 12:38:00,
2013-01-25 06:43:00,4.7,-4.2,30.02,WNW,294,9.0,20.0,66,0.00,,OVC017,0.00,VWS V14.00,2013-01-25 12:43:00,
2013-01-25 06:48:00,4.6,-4.2,30.02,NW,304,10.0,20.0,66,0.00,,OVC017,0.00,VWS V14.00,2013-01-25 12:48:00,
2013-01-25 06:53:00,4.4,-4.8,30.03,WNW,297,8.0,16.0,65,0.00,,OVC017,0.00,VWS V14.00,2013-01-25 12:53:00,
2013-01-25 06:58:00,4.1,-5.0,30.03,NW,314,16.0,20.0,65,0.00,,OVC017,0.00,VWS V14.00,2013-01-25 12:58:00,
2013-01-25 07:03:00,3.8,-5.3,30.04,NW,310,16.0,26.0,65,0.00,,OVC015,0.00,VWS V14.00,2013-01-25 13:03:00,
2013-01-25 07:08:00,3.6,-5.5,30.04,NW,315,11.0,26.0,65,0.00,,OVC015,0.00,VWS V14.00,2013-01-25 13:08:00,
2013-01-25 07:13:00,3.3,-5.8,30.04,NW,314,17.0,20.0,65,0.00,,OVC015,0.00,VWS V14.00,2013-01-25 13:13:00,
2013-01-25 07:18:00,3.0,-6.1,30.05,NW,320,9.0,23.0,65,0.00,,OVC015,0.00,VWS V14.00,2013-01-25 13:18:00,
2013-01-25 07:23:00,2.6,-6.8,30.05,WNW,286,13.0,20.0,64,0.00,,OVC015,0.00,VWS V14.00,2013-01-25 13:23:00,
2013-01-25 07:28:00,2.4,-7.0,30.05,NW,314,10.0,26.0,64,0.00,,OVC015,0.00,VWS V14.00,2013-01-25 13:28:00,
2013-01-25 07:33:00,2.1,-7.6,30.06,WNW,301,28.0,28.0,63,0.00,,OVC015,0.00,VWS V14.00,2013-01-25 13:33:00,
2013-01-25 07:39:00,1.8,-7.6,30.06,NW,305,12.0,28.0,64,0.00,,OVC015,0.00,VWS V14.00,2013-01-25 13:39:00,
2013-01-25 07:44:00,1.7,-8.0,30.06,NW,321,9.0,22.0,63,0.00,,OVC015,0.00,VWS V14.00,2013-01-25 13:44:00,
2013-01-25 07:49:00,1.3,-8.4,30.07,WNW,297,13.0,22.0,63,0.00,,OVC015,0.00,VWS V14.00,2013-01-25 13:49:00,
2013-01-25 07:54:00,1.2,-8.1,30.07,NW,317,8.0,23.0,64,0.00,,OVC015,0.00,VWS V14.00,2013-01-25 13:54:00,
2013-01-25 07:59:00,1.1,-8.5,30.07,NW,313,14.0,24.0,63,0.00,,OVC015,0.00,VWS V14.00,2013-01-25 13:59:00,
2013-01-25 08:04:00,0.9,-8.7,30.08,NW,320,8.0,21.0,63,0.00,,SCT015,0.00,VWS V14.00,2013-01-25 14:04:00,
2013-01-25 08:09:00,0.8,-8.8,30.09,NW,305,10.0,21.0,63,0.00,,SCT015,0.00,VWS V14.00,2013-01-25 14:09:00,
2013-01-25 08:14:00,0.7,-8.9,30.09,NW,308,13.0,23.0,63,0.00,,SCT015,0.00,VWS V14.00,2013-01-25 14:14:00,
2013-01-25 08:19:00,0.5,-9.1,30.09,NW,324,4.0,23.0,63,0.00,,SCT015,0.00,VWS V14.00,2013-01-25 14:19:00,
2013-01-25 08:24:00,0.4,-9.2,30.10,NW,320,8.0,24.0,63,0.00,,SCT015,0.00,VWS V14.00,2013-01-25 14:24:00,
2013-01-25 08:29:00,0.1,-9.5,30.10,NW,311,4.0,24.0,63,0.00,,SCT015,0.00,VWS V14.00,2013-01-25 14:29:00,
2013-01-25 08:34:00,0.1,-9.5,30.11,NW,326,7.0,20.0,63,0.00,,SCT015,0.00,VWS V14.00,2013-01-25 14:34:00,
2013-01-25 08:39:00,0.1,-9.5,30.10,NW,313,13.0,20.0,63,0.00,,SCT015,0.00,VWS V14.00,2013-01-25 14:39:00,
2013-01-25 08:44:00,-0.1,-9.7,30.11,NW,311,9.0,25.0,63,0.00,,SCT015,0.00,VWS V14.00,2013-01-25 14:44:00,
2013-01-25 08:49:00,-0.2,-9.8,30.11,NW,308,16.0,25.0,63,0.00,,SCT015,0.00,VWS V14.00,2013-01-25 14:49:00,
2013-01-25 08:54:00,-0.1,-9.7,30.12,NW,316,15.0,22.0,63,0.00,,SCT015,0.00,VWS V14.00,2013-01-25 14:54:00,
2013-01-25 08:59:00,-0.2,-9.8,30.12,NW,314,9.0,22.0,63,0.00,,SCT015,0.00,VWS V14.00,2013-01-25 14:59:00,
2013-01-25 09:04:00,-0.2,-9.8,30.13,NW,304,10.0,20.0,63,0.00,,CLR,0.00,VWS V14.00,2013-01-25 15:04:00,
2013-01-25 09:09:00,-0.3,-9.9,30.13,NW,310,2.0,20.0,63,0.00,,CLR,0.00,VWS V14.00,2013-01-25 15:09:00,
2013-01-25 09:14:00,-0.2,-10.1,30.13,NW,320,14.0,21.0,62,0.00,,CLR,0.00,VWS V14.00,2013-01-25 15:14:00,
2013-01-25 09:19:00,-0.3,-9.9,30.14,NW,311,12.0,21.0,63,0.00,,CLR,0.00,VWS V14.00,2013-01-25 15:19:00,
2013-01-25 09:24:00,-0.2,-9.8,30.14,NW,317,12.0,21.0,63,0.00,,CLR,0.00,VWS V14.00,2013-01-25 15:24:00,
2013-01-25 09:29:00,-0.4,-10.3,30.14,NW,313,13.0,22.0,62,0.00,,CLR,0.00,VWS V14.00,2013-01-25 15:29:00,
2013-01-25 09:34:00,-0.3,-9.9,30.14,NW,307,15.0,22.0,63,0.00,,CLR,0.00,VWS V14.00,2013-01-25 15:34:00,
2013-01-25 09:39:00,-0.3,-9.9,30.15,NW,320,8.0,23.0,63,0.00,,CLR,0.00,VWS V14.00,2013-01-25 15:39:00,
2013-01-25 09:44:00,-0.1,-9.7,30.15,NW,307,16.0,21.0,63,0.00,,CLR,0.00,VWS V14.00,2013-01-25 15:44:00,
2013-01-25 09:49:00,-0.1,-9.7,30.15,NW,322,9.0,22.0,63,0.00,,CLR,0.00,VWS V14.00,2013-01-25 15:49:00,
2013-01-25 09:54:00,-0.1,-9.6,30.16,NW,326,9.0,22.0,63,0.00,,CLR,0.00,VWS V14.00,2013-01-25 15:54:00,
2013-01-25 09:59:00,0.1,-9.5,30.16,NW,314,3.0,22.0,63,0.00,,CLR,0.00,VWS V14.00,2013-01-25 15:59:00,
2013-01-25 10:04:00,0.2,-9.4,30.16,NW,321,14.0,20.0,63,0.00,,SCT012,0.00,VWS V14.00,2013-01-25 16:04:00,
2013-01-25 10:09:00,0.4,-9.2,30.17,NNW,329,4.0,20.0,63,0.00,,BKN012,0.00,VWS V14.00,2013-01-25 16:09:00,
2013-01-25 10:14:00,0.5,-8.8,30.17,NNW,341,7.0,18.0,64,0.00,,BKN012,0.00,VWS V14.00,2013-01-25 16:14:00,
2013-01-25 10:19:00,0.6,-9.0,30.17,NW,326,5.0,24.0,63,0.00,,CLR,0.00,VWS V14.00,2013-01-25 16:19:00,
2013-01-25 10:24:00,0.7,-8.6,30.18,NW,321,8.0,22.0,64,0.00,,CLR,0.00,VWS V14.00,2013-01-25 16:24:00,
2013-01-25 10:29:00,0.9,-8.4,30.18,WNW,297,13.0,22.0,64,0.00,,CLR,0.00,VWS V14.00,2013-01-25 16:29:00,
2013-01-25 10:35:00,0.9,-8.7,30.18,NW,321,11.0,19.0,63,0.00,,CLR,0.00,VWS V14.00,2013-01-25 16:35:00,
2013-01-25 10:40:00,1.1,-8.2,30.19,WNW,298,6.0,19.0,64,0.00,,CLR,0.00,VWS V14.00,2013-01-25 16:40:00,
2013-01-25 10:45:00,1.1,-8.5,30.19,NW,320,8.0,18.0,63,0.00,,OVC013,0.00,VWS V14.00,2013-01-25 16:45:00,
2013-01-25 10:50:00,0.9,-8.7,30.19,NW,320,8.0,19.0,63,0.00,,OVC013,0.00,VWS V14.00,2013-01-25 16:50:00,
2013-01-25 10:55:00,1.3,-8.0,30.20,WNW,301,7.0,15.0,64,0.00,,OVC013,0.00,VWS V14.00,2013-01-25 16:55:00,
2013-01-25 11:00:00,1.5,-7.8,30.19,NNW,339,19.0,20.0,64,0.00,,OVC013,0.00,VWS V14.00,2013-01-25 17:00:00,
2013-01-25 11:05:00,1.6,-7.7,30.20,NNW,335,14.0,19.0,64,0.00,,OVC013,0.00,VWS V14.00,2013-01-25 17:05:00,
2013-01-25 11:10:00,1.8,-7.6,30.20,NW,309,10.0,22.0,64,0.00,,OVC013,0.00,VWS V14.00,2013-01-25 17:10:00,
2013-01-25 11:15:00,1.9,-7.5,30.20,NNW,336,6.0,17.0,64,0.00,,OVC013,0.00,VWS V14.00,2013-01-25 17:15:00,
2013-01-25 11:20:00,1.9,-7.5,30.21,NW,326,9.0,12.0,64,0.00,,OVC013,0.00,VWS V14.00,2013-01-25 17:20:00,
2013-01-25 11:25:00,1.9,-7.5,30.21,NW,304,8.0,18.0,64,0.00,,OVC013,0.00,VWS V14.00,2013-01-25 17:25:00,
2013-01-25 11:30:00,1.9,-7.8,30.21,NW,315,17.0,17.0,63,0.00,,OVC013,0.00,VWS V14.00,2013-01-25 17:30:00,
2013-01-25 11:35:00,1.9,-7.5,30.22,NW,311,10.0,17.0,64,0.00,,OVC013,0.00,VWS V14.00,2013-01-25 17:35:00,
2013-01-25 11:40:00,2.1,-7.3,30.22,NW,310,6.0,7.0,64,0.00,,OVC013,0.00,VWS V14.00,2013-01-25 17:40:00,
2013-01-25 11:45:00,2.3,-7.1,30.22,NW,307,12.0,19.0,64,0.00,,OVC013,0.00,VWS V14.00,2013-01-25 17:45:00,
2013-01-25 11:50:00,1.9,-7.5,30.22,NW,305,18.0,22.0,64,0.00,,OVC013,0.00,VWS V14.00,2013-01-25 17:50:00,
2013-01-25 11:55:00,1.8,-7.2,30.22,NW,311,13.0,22.0,65,0.00,,OVC013,0.00,VWS V14.00,2013-01-25 17:55:00,
2013-01-25 12:00:00,1.8,-7.2,30.23,WNW,296,13.0,15.0,65,0.00,,OVC013,0.00,VWS V14.00,2013-01-25 18:00:00,
2013-01-25 12:05:00,1.9,-7.1,30.22,NW,310,9.0,15.0,65,0.00,,OVC013,0.00,VWS V14.00,2013-01-25 18:05:00,
2013-01-25 12:10:00,2.0,-7.0,30.23,NW,321,8.0,12.0,65,0.00,,OVC013,0.00,VWS V14.00,2013-01-25 18:10:00,
2013-01-25 12:15:00,2.2,-6.8,30.22,NW,311,4.0,17.0,65,0.00,,OVC013,0.00,VWS V14.00,2013-01-25 18:15:00,
2013-01-25 12:20:00,2.4,-6.7,30.23,NNW,330,16.0,16.0,65,0.00,,OVC013,0.00,VWS V14.00,2013-01-25 18:20:00,
2013-01-25 12:25:00,2.5,-6.6,30.23,NW,318,11.0,19.0,65,0.00,,OVC013,0.00,VWS V14.00,2013-01-25 18:25:00,
2013-01-25 12:30:00,2.3,-6.8,30.23,NNW,342,7.0,15.0,65,0.00,,OVC013,0.00,VWS V14.00,2013-01-25 18:30:00,
2013-01-25 12:35:00,2.5,-6.6,30.23,NNW,328,11.0,18.0,65,0.00,,OVC013,0.00,VWS V14.00,2013-01-25 18:35:00,
2013-01-25 12:40:00,2.6,-6.5,30.24,NW,318,7.0,9.0,65,0.00,,OVC013,0.00,VWS V14.00,2013-01-25 18:40:00,
2013-01-25 12:45:00,2.5,-6.9,30.23,NW,314,4.0,13.0,64,0.00,,OVC013,0.00,VWS V14.00,2013-01-25 18:45:00,
2013-01-25 12:50:00,2.5,-6.9,30.23,NW,314,3.0,12.0,64,0.00,,OVC013,0.00,VWS V14.00,2013-01-25 18:50:00,
2013-01-25 12:55:00,2.7,-6.7,30.23,NNW,335,12.0,19.0,64,0.00,,OVC013,0.00,VWS V14.00,2013-01-25 18:55:00,
2013-01-25 13:00:00,2.6,-6.8,30.23,NNW,346,6.0,15.0,64,0.00,,,0.00,VWS V14.00,2013-01-25 19:00:00,
2013-01-25 13:05:00,2.6,-7.1,30.23,NNW,330,11.0,17.0,63,0.00,,,0.00,VWS V14.00,2013-01-25 19:05:00,
2013-01-25 13:10:00,2.5,-7.2,30.23,NW,323,6.0,12.0,63,0.00,,,0.00,VWS V14.00,2013-01-25 19:10:00,
2013-01-25 13:15:00,2.6,-7.1,30.23,NW,323,12.0,16.0,63,0.00,,,0.00,VWS V14.00,2013-01-25 19:15:00,
2013-01-25 13:20:00,2.6,-7.1,30.24,WNW,303,10.0,12.0,63,0.00,,,0.00,VWS V14.00,2013-01-25 19:20:00,
2013-01-25 13:25:00,2.4,-7.3,30.24,NW,326,0.0,20.0,63,0.00,,,0.00,VWS V14.00,2013-01-25 19:25:00,
2013-01-25 13:30:00,2.5,-6.9,30.24,NNW,334,15.0,15.0,64,0.00,,,0.00,VWS V14.00,2013-01-25 19:30:00,
2013-01-25 13:35:00,2.5,-6.9,30.24,NNW,336,12.0,18.0,64,0.00,,,0.00,VWS V14.00,2013-01-25 19:35:00,
2013-01-25 13:40:00,2.3,-7.4,30.24,NNW,331,13.0,15.0,63,0.00,,,0.00,VWS V14.00,2013-01-25 19:40:00,
2013-01-25 13:45:00,2.4,-6.7,30.24,NNW,343,9.0,15.0,65,0.00,,,0.00,VWS V14.00,2013-01-25 19:45:00,
2013-01-25 13:50:00,2.7,-6.4,30.24,NW,326,10.0,11.0,65,0.00,,,0.00,VWS V14.00,2013-01-25 19:50:00,
2013-01-25 13:55:00,2.7,-6.4,30.23,NW,324,5.0,15.0,65,0.00,,,0.00,VWS V14.00,2013-01-25 19:55:00,
2013-01-25 14:00:00,2.7,-6.4,30.23,NNW,334,6.0,11.0,65,0.00,,,0.00,VWS V14.00,2013-01-25 20:00:00,
2013-01-25 14:05:00,2.8,-6.6,30.24,NNW,329,2.0,15.0,64,0.00,,,0.00,VWS V14.00,2013-01-25 20:05:00,
2013-01-25 14:10:00,2.9,-6.2,30.24,NNW,329,4.0,11.0,65,0.00,,,0.00,VWS V14.00,2013-01-25 20:10:00,
2013-01-25 14:15:00,3.0,-5.8,30.24,NNW,336,3.0,17.0,66,0.00,,,0.00,VWS V14.00,2013-01-25 20:15:00,
2013-01-25 14:20:00,3.1,-6.0,30.24,NNW,335,9.0,13.0,65,0.00,,,0.00,VWS V14.00,2013-01-25 20:20:00,
2013-01-25 14:25:00,3.1,-6.0,30.24,NW,316,5.0,15.0,65,0.00,,,0.00,VWS V14.00,2013-01-25 20:25:00,
2013-01-25 14:30:00,3.0,-6.4,30.24,NNW,343,7.0,10.0,64,0.00,,,0.00,VWS V14.00,2013-01-25 20:30:00,
2013-01-25 14:35:00,3.1,-6.3,30.24,NNW,335,2.0,14.0,64,0.00,,,0.00,VWS V14.00,2013-01-25 20:35:00,
2013-01-25 14:40:00,3.2,-6.2,30.25,NW,326,5.0,12.0,64,0.00,,,0.00,VWS V14.00,2013-01-25 20:40:00,
2013-01-25 14:45:00,3.0,-6.7,30.26,NW,315,4.0,13.0,63,0.00,,,0.00,VWS V14.00,2013-01-25 20:45:00,
2013-01-25 14:50:00,2.8,-6.9,30.25,NNW,332,9.0,11.0,63,0.00,,,0.00,VWS V14.00,2013-01-25 20:50:00,
2013-01-25 14:55:00,2.7,-6.7,30.26,NNW,328,1.0,13.0,64,0.00,,,0.00,VWS V14.00,2013-01-25 20:55:00,
2013-01-25 15:00:00,2.5,-6.6,30.26,NNW,337,4.0,11.0,65,0.00,,,0.00,VWS V14.00,2013-01-25 21:00:00,
2013-01-25 15:05:00,2.6,-6.5,30.26,NW,308,8.0,16.0,65,0.00,,,0.00,VWS V14.00,2013-01-25 21:05:00,
2013-01-25 15:11:00,2.7,-6.7,30.27,NNW,327,0.0,14.0,64,0.00,,,0.00,VWS V14.00,2013-01-25 21:11:00,
2013-01-25 15:16:00,2.8,-6.3,30.27,NNW,341,8.0,14.0,65,0.00,,,0.00,VWS V14.00,2013-01-25 21:16:00,
2013-01-25 15:21:00,2.5,-6.6,30.27,NNW,336,0.0,13.0,65,0.00,,,0.00,VWS V14.00,2013-01-25 21:21:00,
2013-01-25 15:26:00,2.4,-6.7,30.27,NNW,334,6.0,14.0,65,0.00,,,0.00,VWS V14.00,2013-01-25 21:26:00,
2013-01-25 15:31:00,2.5,-6.6,30.27,NNW,333,10.0,15.0,65,0.00,,,0.00,VWS V14.00,2013-01-25 21:31:00,
2013-01-25 15:36:00,2.5,-6.6,30.27,NNW,347,8.0,15.0,65,0.00,,,0.00,VWS V14.00,2013-01-25 21:36:00,
2013-01-25 15:41:00,2.6,-6.8,30.27,NNW,330,5.0,14.0,64,0.00,,,0.00,VWS V14.00,2013-01-25 21:41:00,
2013-01-25 15:46:00,2.7,-6.7,30.27,NW,324,7.0,14.0,64,0.00,,,0.00,VWS V14.00,2013-01-25 21:46:00,
2013-01-25 15:51:00,2.6,-6.8,30.28,NW,310,0.0,1.0,64,0.00,,,0.00,VWS V14.00,2013-01-25 21:51:00,
2013-01-25 15:56:00,2.6,-6.8,30.28,NNW,333,1.0,10.0,64,0.00,,,0.00,VWS V14.00,2013-01-25 21:56:00,
2013-01-25 16:01:00,2.6,-6.8,30.27,NNW,343,11.0,13.0,64,0.00,,BKN012,0.00,VWS V14.00,2013-01-25 22:01:00,
2013-01-25 16:06:00,2.5,-7.2,30.27,North,0,5.0,14.0,63,0.00,,BKN013,0.00,VWS V14.00,2013-01-25 22:06:00,
2013-01-25 16:11:00,2.3,-7.4,30.27,North,354,4.0,9.0,63,0.00,,BKN013,0.00,VWS V14.00,2013-01-25 22:11:00,
2013-01-25 16:16:00,2.3,-7.1,30.27,NNW,336,6.0,11.0,64,0.00,,BKN013,0.00,VWS V14.00,2013-01-25 22:16:00,
2013-01-25 16:21:00,2.1,-7.3,30.27,North,349,5.0,12.0,64,0.00,,FEW013,0.00,VWS V14.00,2013-01-25 22:21:00,
2013-01-25 16:26:00,2.1,-7.6,30.27,NNW,341,8.0,13.0,63,0.00,,FEW013,0.00,VWS V14.00,2013-01-25 22:26:00,
2013-01-25 16:31:00,1.9,-8.1,30.27,NNW,339,3.0,7.0,62,0.00,,FEW013,0.00,VWS V14.00,2013-01-25 22:31:00,
2013-01-25 16:36:00,1.7,-8.3,30.27,North,351,3.0,11.0,62,0.00,,FEW013,0.00,VWS V14.00,2013-01-25 22:36:00,
2013-01-25 16:41:00,1.6,-8.1,30.27,North,356,7.0,11.0,63,0.00,,FEW013,0.00,VWS V14.00,2013-01-25 22:41:00,
2013-01-25 16:46:00,1.4,-7.9,30.28,North,0,11.0,12.0,64,0.00,,FEW013,0.00,VWS V14.00,2013-01-25 22:46:00,
2013-01-25 16:51:00,1.2,-7.8,30.28,North,0,6.0,10.0,65,0.00,,FEW013,0.00,VWS V14.00,2013-01-25 22:51:00,
2013-01-25 16:56:00,1.0,-8.0,30.28,North,350,2.0,12.0,65,0.00,,FEW013,0.00,VWS V14.00,2013-01-25 22:56:00,
2013-01-25 17:01:00,0.8,-8.2,30.28,NNW,348,4.0,9.0,65,0.00,,FEW013,0.00,VWS V14.00,2013-01-25 23:01:00,
2013-01-25 17:06:00,0.6,-8.4,30.28,NNW,348,2.0,9.0,65,0.00,,CLR,0.00,VWS V14.00,2013-01-25 23:06:00,
2013-01-25 17:11:00,0.4,-8.6,30.27,North,359,2.0,8.0,65,0.00,,CLR,0.00,VWS V14.00,2013-01-25 23:11:00,
2013-01-25 17:16:00,0.1,-8.9,30.28,North,358,0.0,8.0,65,0.00,,FEW006,0.00,VWS V14.00,2013-01-25 23:16:00,
2013-01-25 17:21:00,-0.1,-8.6,30.28,North,358,0.0,0.0,66,0.00,,FEW006,0.00,VWS V14.00,2013-01-25 23:21:00,
2013-01-25 17:26:00,-0.4,-9.0,30.28,North,358,0.0,1.0,66,0.00,,FEW006,0.00,VWS V14.00,2013-01-25 23:26:00,
2013-01-25 17:31:00,-0.4,-9.0,30.28,North,358,0.0,0.0,66,0.00,,FEW006,0.00,VWS V14.00,2013-01-25 23:31:00,
2013-01-25 17:36:00,-0.5,-9.1,30.28,North,358,0.0,1.0,66,0.00,,FEW006,0.00,VWS V14.00,2013-01-25 23:36:00,
2013-01-25 17:41:00,-0.7,-9.3,30.29,North,358,0.0,1.0,66,0.00,,FEW006,0.00,VWS V14.00,2013-01-25 23:41:00,
2013-01-25 17:46:00,-0.9,-9.5,30.29,North,358,0.0,1.0,66,0.00,,FEW006,0.00,VWS V14.00,2013-01-25 23:46:00,
2013-01-25 17:51:00,-1.1,-9.7,30.29,North,358,0.0,0.0,66,0.00,,FEW006,0.00,VWS V14.00,2013-01-25 23:51:00,
2013-01-25 17:56:00,-1.3,-9.6,30.30,North,358,0.0,0.0,67,0.00,,FEW006,0.00,VWS V14.00,2013-01-25 23:56:00,
2013-01-25 18:01:00,-1.5,-9.8,30.30,North,358,0.0,0.0,67,0.00,,FEW006,0.00,VWS V14.00,2013-01-26 00:01:00,
2013-01-25 18:06:00,-1.6,-9.9,30.31,North,358,0.0,0.0,67,0.00,,CLR,0.00,VWS V14.00,2013-01-26 00:06:00,
2013-01-25 18:11:00,-1.8,-10.1,30.31,North,358,0.0,0.0,67,0.00,,CLR,0.00,VWS V14.00,2013-01-26 00:11:00,
2013-01-25 18:16:00,-2.0,-10.3,30.31,North,358,0.0,0.0,67,0.00,,CLR,0.00,VWS V14.00,2013-01-26 00:16:00,
2013-01-25 18:21:00,-2.1,-10.1,30.31,North,358,0.0,0.0,68,0.00,,CLR,0.00,VWS V14.00,2013-01-26 00:21:00,
2013-01-25 18:26:00,-2.1,-10.1,30.31,North,358,0.0,0.0,68,0.00,,CLR,0.00,VWS V14.00,2013-01-26 00:26:00,
2013-01-25 18:31:00,-2.3,-10.2,30.31,North,358,0.0,0.0,68,0.00,,CLR,0.00,VWS V14.00,2013-01-26 00:31:00,
2013-01-25 18:36:00,-2.5,-10.4,30.32,North,358,0.0,0.0,68,0.00,,CLR,0.00,VWS V14.00,2013-01-26 00:36:00,
2013-01-25 18:41:00,-2.6,-10.5,30.32,North,358,0.0,0.0,68,0.00,,CLR,0.00,VWS V14.00,2013-01-26 00:41:00,
2013-01-25 18:46:00,-2.7,-10.6,30.32,North,358,0.0,0.0,68,0.00,,CLR,0.00,VWS V14.00,2013-01-26 00:46:00,
2013-01-25 18:51:00,-2.8,-10.7,30.32,North,358,0.0,0.0,68,0.00,,CLR,0.00,VWS V14.00,2013-01-26 00:51:00,
2013-01-25 18:56:00,-3.0,-10.9,30.32,North,358,0.0,0.0,68,0.00,,CLR,0.00,VWS V14.00,2013-01-26 00:56:00,
2013-01-25 19:01:00,-3.2,-11.1,30.32,North,358,0.0,0.0,68,0.00,,CLR,0.00,VWS V14.00,2013-01-26 01:01:00,
2013-01-25 19:06:00,-3.3,-11.2,30.31,North,358,0.0,0.0,68,0.00,,CLR,0.00,VWS V14.00,2013-01-26 01:06:00,
2013-01-25 19:11:00,-3.4,-11.3,30.31,North,358,0.0,0.0,68,0.00,,CLR,0.00,VWS V14.00,2013-01-26 01:11:00,
2013-01-25 19:16:00,-3.5,-11.4,30.31,North,358,0.0,0.0,68,0.00,,CLR,0.00,VWS V14.00,2013-01-26 01:16:00,
2013-01-25 19:21:00,-3.6,-11.5,30.31,North,358,0.0,0.0,68,0.00,,CLR,0.00,VWS V14.00,2013-01-26 01:21:00,
2013-01-25 19:26:00,-3.7,-11.6,30.31,North,358,0.0,0.0,68,0.00,,CLR,0.00,VWS V14.00,2013-01-26 01:26:00,
2013-01-25 19:31:00,-3.7,-11.3,30.31,North,358,0.0,0.0,69,0.00,,CLR,0.00,VWS V14.00,2013-01-26 01:31:00,
2013-01-25 19:37:00,-3.8,-11.4,30.30,North,358,0.0,0.0,69,0.00,,CLR,0.00,VWS V14.00,2013-01-26 01:37:00,
2013-01-25 19:42:00,-3.8,-11.4,30.30,North,358,0.0,0.0,69,0.00,,CLR,0.00,VWS V14.00,2013-01-26 01:42:00,
2013-01-25 19:47:00,-4.0,-11.6,30.31,North,358,0.0,0.0,69,0.00,,CLR,0.00,VWS V14.00,2013-01-26 01:47:00,
2013-01-25 19:52:00,-4.1,-11.7,30.31,North,358,0.0,0.0,69,0.00,,CLR,0.00,VWS V14.00,2013-01-26 01:52:00,
2013-01-25 19:57:00,-4.3,-11.9,30.30,North,358,0.0,0.0,69,0.00,,CLR,0.00,VWS V14.00,2013-01-26 01:57:00,
2013-01-25 20:02:00,-4.4,-12.0,30.30,North,358,0.0,0.0,69,0.00,,CLR,0.00,VWS V14.00,2013-01-26 02:02:00,
2013-01-25 20:07:00,-4.4,-12.0,30.30,North,358,0.0,0.0,69,0.00,,CLR,0.00,VWS V14.00,2013-01-26 02:07:00,
2013-01-25 20:12:00,-4.4,-12.0,30.30,North,358,0.0,0.0,69,0.00,,CLR,0.00,VWS V14.00,2013-01-26 02:12:00,
2013-01-25 20:17:00,-4.4,-12.0,30.31,North,358,0.0,0.0,69,0.00,,CLR,0.00,VWS V14.00,2013-01-26 02:17:00,
2013-01-25 20:22:00,-4.4,-12.0,30.30,North,358,0.0,0.0,69,0.00,,CLR,0.00,VWS V14.00,2013-01-26 02:22:00,
2013-01-25 20:27:00,-4.5,-12.1,30.31,North,358,0.0,0.0,69,0.00,,CLR,0.00,VWS V14.00,2013-01-26 02:27:00,
2013-01-25 20:32:00,-4.5,-12.1,30.31,North,358,0.0,0.0,69,0.00,,CLR,0.00,VWS V14.00,2013-01-26 02:32:00,
2013-01-25 20:37:00,-4.6,-12.2,30.31,North,358,0.0,0.0,69,0.00,,CLR,0.00,VWS V14.00,2013-01-26 02:37:00,
2013-01-25 20:42:00,-4.6,-12.2,30.31,North,358,0.0,0.0,69,0.00,,CLR,0.00,VWS V14.00,2013-01-26 02:42:00,
2013-01-25 20:47:00,-4.7,-12.3,30.31,North,358,0.0,0.0,69,0.00,,CLR,0.00,VWS V14.00,2013-01-26 02:47:00,
2013-01-25 20:52:00,-4.7,-12.3,30.31,North,358,0.0,0.0,69,0.00,,CLR,0.00,VWS V14.00,2013-01-26 02:52:00,
2013-01-25 20:57:00,-4.9,-12.4,30.32,North,358,0.0,0.0,69,0.00,,CLR,0.00,VWS V14.00,2013-01-26 02:57:00,
2013-01-25 21:02:00,-4.9,-12.4,30.32,North,358,0.0,0.0,69,0.00,,CLR,0.00,VWS V14.00,2013-01-26 03:02:00,
2013-01-25 21:07:00,-4.9,-12.4,30.31,North,358,0.0,0.0,69,0.00,,CLR,0.00,VWS V14.00,2013-01-26 03:07:00,
2013-01-25 21:12:00,-4.9,-12.4,30.31,North,358,0.0,0.0,69,0.00,,CLR,0.00,VWS V14.00,2013-01-26 03:12:00,
2013-01-25 21:17:00,-5.0,-12.3,30.31,North,358,0.0,0.0,70,0.00,,CLR,0.00,VWS V14.00,2013-01-26 03:17:00,
2013-01-25 21:22:00,-5.0,-12.3,30.31,North,358,0.0,0.0,70,0.00,,CLR,0.00,VWS V14.00,2013-01-26 03:22:00,
2013-01-25 21:27:00,-5.0,-12.6,30.31,North,358,0.0,0.0,69,0.00,,CLR,0.00,VWS V14.00,2013-01-26 03:27:00,
2013-01-25 21:32:00,-5.0,-12.3,30.32,North,358,0.0,0.0,70,0.00,,CLR,0.00,VWS V14.00,2013-01-26 03:32:00,
2013-01-25 21:37:00,-5.0,-12.6,30.32,North,358,0.0,0.0,69,0.00,,CLR,0.00,VWS V14.00,2013-01-26 03:37:00,
2013-01-25 21:42:00,-5.1,-12.6,30.32,North,358,0.0,0.0,69,0.00,,CLR,0.00,VWS V14.00,2013-01-26 03:42:00,
2013-01-25 21:47:00,-5.1,-12.6,30.32,North,358,0.0,0.0,69,0.00,,CLR,0.00,VWS V14.00,2013-01-26 03:47:00,
2013-01-25 21:52:00,-5.2,-12.5,30.32,North,358,0.0,0.0,70,0.00,,CLR,0.00,VWS V14.00,2013-01-26 03:52:00,
2013-01-25 21:57:00,-5.4,-12.9,30.32,North,358,0.0,0.0,69,0.00,,CLR,0.00,VWS V14.00,2013-01-26 03:57:00,
2013-01-25 22:02:00,-5.6,-13.1,30.33,North,358,0.0,0.0,69,0.00,,CLR,0.00,VWS V14.00,2013-01-26 04:02:00,
2013-01-25 22:07:00,-5.7,-13.2,30.33,North,358,0.0,0.0,69,0.00,,CLR,0.00,VWS V14.00,2013-01-26 04:07:00,
2013-01-25 22:12:00,-5.8,-13.3,30.33,North,358,0.0,0.0,69,0.00,,CLR,0.00,VWS V14.00,2013-01-26 04:12:00,
2013-01-25 22:17:00,-5.9,-13.4,30.33,North,358,0.0,0.0,69,0.00,,CLR,0.00,VWS V14.00,2013-01-26 04:17:00,
2013-01-25 22:22:00,-6.0,-13.5,30.33,North,358,0.0,0.0,69,0.00,,CLR,0.00,VWS V14.00,2013-01-26 04:22:00,
2013-01-25 22:27:00,-5.9,-13.1,30.33,North,358,0.0,0.0,70,0.00,,CLR,0.00,VWS V14.00,2013-01-26 04:27:00,
2013-01-25 22:32:00,-5.9,-13.4,30.33,North,358,0.0,0.0,69,0.00,,CLR,0.00,VWS V14.00,2013-01-26 04:32:00,
2013-01-25 22:38:00,-6.0,-13.2,30.33,North,358,0.0,0.0,70,0.00,,CLR,0.00,VWS V14.00,2013-01-26 04:38:00,
2013-01-25 22:43:00,-6.0,-13.5,30.33,North,358,0.0,0.0,69,0.00,,CLR,0.00,VWS V14.00,2013-01-26 04:43:00,
2013-01-25 22:48:00,-6.2,-13.7,30.33,North,358,0.0,0.0,69,0.00,,CLR,0.00,VWS V14.00,2013-01-26 04:48:00,
2013-01-25 22:53:00,-6.1,-13.6,30.33,North,358,0.0,0.0,69,0.00,,CLR,0.00,VWS V14.00,2013-01-26 04:53:00,
2013-01-25 22:58:00,-6.0,-13.2,30.34,North,358,0.0,0.0,70,0.00,,CLR,0.00,VWS V14.00,2013-01-26 04:58:00,
2013-01-25 23:00:00,-5.9,-13.1,30.34,North,358,0.0,0.0,70,0.00,,CLR,0.00,VWS V14.00,2013-01-26 05:00:00,
2013-01-25 23:01:00,-5.9,-13.1,30.34,North,358,0.0,0.0,70,0.00,,CLR,0.00,VWS V14.00,2013-01-26 05:01:00,
2013-01-25 23:03:00,-5.9,-13.1,30.33,North,358,0.0,0.0,70,0.00,,CLR,0.00,VWS V14.00,2013-01-26 05:03:00,
2013-01-25 23:08:00,-5.9,-13.1,30.33,North,358,0.0,0.0,70,0.00,,CLR,0.00,VWS V14.00,2013-01-26 05:08:00,
2013-01-25 23:13:00,-5.9,-13.1,30.34,North,358,0.0,0.0,70,0.00,,CLR,0.00,VWS V14.00,2013-01-26 05:13:00,
2013-01-25 23:18:00,-6.0,-13.2,30.34,North,358,0.0,0.0,70,0.00,,CLR,0.00,VWS V14.00,2013-01-26 05:18:00,
2013-01-25 23:23:00,-6.0,-13.2,30.34,North,358,0.0,0.0,70,0.00,,CLR,0.00,VWS V14.00,2013-01-26 05:23:00,
2013-01-25 23:28:00,-6.1,-13.3,30.33,North,358,0.0,0.0,70,0.00,,CLR,0.00,VWS V14.00,2013-01-26 05:28:00,
2013-01-25 23:33:00,-6.1,-13.3,30.33,North,358,0.0,0.0,70,0.00,,CLR,0.00,VWS V14.00,2013-01-26 05:33:00,
2013-01-25 23:38:00,-6.2,-13.4,30.33,North,358,0.0,0.0,70,0.00,,CLR,0.00,VWS V14.00,2013-01-26 05:38:00,
2013-01-25 23:43:00,-6.2,-13.4,30.33,North,358,0.0,0.0,70,0.00,,CLR,0.00,VWS V14.00,2013-01-26 05:43:00,
2013-01-25 23:48:00,-6.2,-13.4,30.33,North,358,0.0,0.0,70,0.00,,CLR,0.00,VWS V14.00,2013-01-26 05:48:00,
2013-01-25 23:53:00,-6.2,-13.4,30.33,North,358,0.0,0.0,70,0.00,,CLR,0.00,VWS V14.00,2013-01-26 05:53:00,
2013-01-25 23:58:00,-6.2,-13.4,30.33,North,358,0.0,0.0,70,0.00,,CLR,0.00,VWS V14.00,2013-01-26 05:58:00,